Yahata Maru — JL6477 — position and weather

sailwx.info

Track history (hours):
 
Tides and Currents Weather Stations Pressure Air Temp Water Temp Dewpoint Dewpoint Depression Visibility Wind Speed Wind Dir Waves Ship Positions

Yahata Maru

Last reported at 2015-Feb-01 06:34 UTC. Time now 2015-Feb-01 07:16 UTC.
Position N 34°38' E 135°18'.

Length 149 m; draft 4.7 m.

Type: Other ship. MMSI: 431400594.

Date/timePositionNaut miles runAvg speedWind from/ knotsBaromVisibWave heightAir tempDewpointWater temp
2015-Feb-01 06:34N 34°38' E 135°18'9 9.3
2015-Feb-01 05:33N 34°30' E 135°12'9 9.0
2015-Feb-01 04:33N 34°23' E 135°05'8 7.9
2015-Feb-01 03:34N 34°17' E 134°60'9 8.7
2015-Feb-01 02:34N 34°08' E 135°00'9 8.8
2015-Feb-01 01:31N 33°59' E 135°01'208 5.2
2015-Jan-30 09:04N 34°47' E 139°07'5 9.5
2015-Jan-30 08:30N 34°52' E 139°10'10 8.7
2015-Jan-30 07:22N 34°57' E 139°20'8 8.7
2015-Jan-30 06:30N 35°01' E 139°28'9 9.5
2015-Jan-30 05:33N 35°05' E 139°38'1010.1
2015-Jan-30 04:33N 35°13' E 139°46'10 9.6
2015-Jan-30 03:33N 35°22' E 139°42'6 6.2
2015-Jan-30 02:33N 35°28' E 139°43'0 0.0
2015-Jan-30 01:33N 35°28' E 139°43'0 0.0
2015-Jan-30 00:33N 35°28' E 139°43'0 0.0
2015-Jan-29 23:34N 35°28' E 139°43'4 3.9
2015-Jan-29 22:34N 35°28' E 139°47'10 9.5
2015-Jan-29 21:33N 35°32' E 139°57'1 0.1
2015-Jan-29 05:32N 35°32' E 139°58'9 9.0
2015-Jan-29 04:33N 35°27' E 139°49'8 8.5
2015-Jan-29 03:33N 35°24' E 139°39'1 0.9
2015-Jan-29 02:32N 35°23' E 139°38'0 0.0
2015-Jan-29 01:33N 35°23' E 139°38'3 2.9
2015-Jan-29 00:34N 35°23' E 139°42'2 2.2
2015-Jan-28 23:32N 35°22' E 139°44'0 0.0
2015-Jan-28 22:32N 35°22' E 139°44'0 0.0
2015-Jan-28 21:29N 35°22' E 139°44'0 0.0
2015-Jan-28 20:32N 35°22' E 139°44'0 0.1
2015-Jan-28 19:32N 35°22' E 139°44'0 0.1
2015-Jan-28 18:32N 35°22' E 139°44'6 6.1
2015-Jan-28 17:33N 35°16' E 139°46'8 8.2
2015-Jan-28 16:33N 35°08' E 139°45'9 8.5
2015-Jan-28 15:33N 35°02' E 139°38'9 8.8
2015-Jan-28 14:33N 34°57' E 139°29'  
2015-Jan-24 00:16N 34°34' E 134°49'912.1
2015-Jan-23 23:33N 34°37' E 134°59'10 9.7
2015-Jan-23 22:33N 34°36' E 135°10'8 8.4
2015-Jan-23 21:33N 34°41' E 135°19'3 2.2
2015-Jan-23 20:23N 34°43' E 135°21'0 0.0
2015-Jan-23 19:29N 34°43' E 135°21'0 0.0
2015-Jan-23 18:29N 34°43' E 135°21'0 0.0
2015-Jan-23 17:23N 34°43' E 135°21'0 0.0
2015-Jan-23 16:17N 34°43' E 135°21'0 0.0
2015-Jan-23 15:23N 34°43' E 135°21'0 0.0
2015-Jan-23 14:29N 34°43' E 135°21'1 0.8
2015-Jan-23 13:33N 34°42' E 135°21'7 6.7
2015-Jan-23 12:33N 34°36' E 135°24'2 1.4
2015-Jan-23 11:25N 34°35' E 135°26'1 1.7
2015-Jan-23 10:33N 34°36' E 135°24'9 8.9
2015-Jan-23 09:33N 34°31' E 135°15'9 8.9
2015-Jan-23 08:33N 34°25' E 135°08'9 8.2
2015-Jan-23 07:25N 34°18' E 134°59'7 7.8
2015-Jan-23 06:33N 34°11' E 134°60'8 8.5
2015-Jan-23 05:33N 34°03' E 135°01'  
Track history (hours):
 
Tides and Currents Weather Stations Pressure Air Temp Water Temp Dewpoint Dewpoint Depression Visibility Wind Speed Wind Dir Waves Ship Positions

Yahata Maru

Last reported at 2015-Feb-01 06:34 UTC. Time now 2015-Feb-01 07:16 UTC.
Position N 34°38' E 135°18'.

Length 149 m; draft 4.7 m.

Type: Other ship. MMSI: 431400594.

Date/timePositionNaut miles runAvg speedWind from/ knotsBaromVisibWave heightAir tempDewpointWater temp
2015-Feb-01 06:34N 34°38' E 135°18'9 9.3
2015-Feb-01 05:33N 34°30' E 135°12'9 9.0
2015-Feb-01 04:33N 34°23' E 135°05'8 7.9
2015-Feb-01 03:34N 34°17' E 134°60'9 8.7
2015-Feb-01 02:34N 34°08' E 135°00'9 8.8
2015-Feb-01 01:31N 33°59' E 135°01'208 5.2
2015-Jan-30 09:04N 34°47' E 139°07'5 9.5
2015-Jan-30 08:30N 34°52' E 139°10'10 8.7
2015-Jan-30 07:22N 34°57' E 139°20'8 8.7
2015-Jan-30 06:30N 35°01' E 139°28'9 9.5
2015-Jan-30 05:33N 35°05' E 139°38'1010.1
2015-Jan-30 04:33N 35°13' E 139°46'10 9.6
2015-Jan-30 03:33N 35°22' E 139°42'6 6.2
2015-Jan-30 02:33N 35°28' E 139°43'0 0.0
2015-Jan-30 01:33N 35°28' E 139°43'0 0.0
2015-Jan-30 00:33N 35°28' E 139°43'0 0.0
2015-Jan-29 23:34N 35°28' E 139°43'4 3.9
2015-Jan-29 22:34N 35°28' E 139°47'10 9.5
2015-Jan-29 21:33N 35°32' E 139°57'1 0.1
2015-Jan-29 05:32N 35°32' E 139°58'9 9.0
2015-Jan-29 04:33N 35°27' E 139°49'8 8.5
2015-Jan-29 03:33N 35°24' E 139°39'1 0.9
2015-Jan-29 02:32N 35°23' E 139°38'0 0.0
2015-Jan-29 01:33N 35°23' E 139°38'3 2.9
2015-Jan-29 00:34N 35°23' E 139°42'2 2.2
2015-Jan-28 23:32N 35°22' E 139°44'0 0.0
2015-Jan-28 22:32N 35°22' E 139°44'0 0.0
2015-Jan-28 21:29N 35°22' E 139°44'0 0.0
2015-Jan-28 20:32N 35°22' E 139°44'0 0.1
2015-Jan-28 19:32N 35°22' E 139°44'0 0.1
2015-Jan-28 18:32N 35°22' E 139°44'6 6.1
2015-Jan-28 17:33N 35°16' E 139°46'8 8.2
2015-Jan-28 16:33N 35°08' E 139°45'9 8.5
2015-Jan-28 15:33N 35°02' E 139°38'9 8.8
2015-Jan-28 14:33N 34°57' E 139°29'  
2015-Jan-24 00:16N 34°34' E 134°49'912.1
2015-Jan-23 23:33N 34°37' E 134°59'10 9.7
2015-Jan-23 22:33N 34°36' E 135°10'8 8.4
2015-Jan-23 21:33N 34°41' E 135°19'3 2.2
2015-Jan-23 20:23N 34°43' E 135°21'0 0.0
2015-Jan-23 19:29N 34°43' E 135°21'0 0.0
2015-Jan-23 18:29N 34°43' E 135°21'0 0.0
2015-Jan-23 17:23N 34°43' E 135°21'0 0.0
2015-Jan-23 16:17N 34°43' E 135°21'0 0.0
2015-Jan-23 15:23N 34°43' E 135°21'0 0.0
2015-Jan-23 14:29N 34°43' E 135°21'1 0.8
2015-Jan-23 13:33N 34°42' E 135°21'7 6.7
2015-Jan-23 12:33N 34°36' E 135°24'2 1.4
2015-Jan-23 11:25N 34°35' E 135°26'1 1.7
2015-Jan-23 10:33N 34°36' E 135°24'9 8.9
2015-Jan-23 09:33N 34°31' E 135°15'9 8.9
2015-Jan-23 08:33N 34°25' E 135°08'9 8.2
2015-Jan-23 07:25N 34°18' E 134°59'7 7.8
2015-Jan-23 06:33N 34°11' E 134°60'8 8.5
2015-Jan-23 05:33N 34°03' E 135°01'  

Dump ship's entire track history